sensor_id;sensor_type;location;lat;lon;timestamp;P1;durP1;ratioP1;P2;durP2;ratioP2
60722;SDS011;46574;52.818;6.516;2022-07-29T00:00:00;1.98;;;1.63;;
60722;SDS011;46574;52.818;6.516;2022-07-29T00:02:26;3.03;;;1.75;;
60722;SDS011;46574;52.818;6.516;2022-07-29T00:04:52;3.20;;;1.90;;
60722;SDS011;46574;52.818;6.516;2022-07-29T00:07:18;2.25;;;1.73;;
60722;SDS011;46574;52.818;6.516;2022-07-29T00:09:44;1.83;;;1.70;;
60722;SDS011;46574;52.818;6.516;2022-07-29T00:12:09;2.58;;;1.92;;
60722;SDS011;46574;52.818;6.516;2022-07-29T00:14:35;2.03;;;1.85;;
60722;SDS011;46574;52.818;6.516;2022-07-29T00:17:01;2.75;;;1.90;;
60722;SDS011;46574;52.818;6.516;2022-07-29T00:19:26;2.30;;;2.00;;
60722;SDS011;46574;52.818;6.516;2022-07-29T00:21:52;5.40;;;2.00;;
60722;SDS011;46574;52.818;6.516;2022-07-29T00:24:18;1.95;;;1.85;;
60722;SDS011;46574;52.818;6.516;2022-07-29T00:26:43;1.98;;;1.77;;
60722;SDS011;46574;52.818;6.516;2022-07-29T00:29:09;2.97;;;1.90;;
60722;SDS011;46574;52.818;6.516;2022-07-29T00:31:34;2.95;;;1.65;;
60722;SDS011;46574;52.818;6.516;2022-07-29T00:34:01;2.20;;;1.88;;
60722;SDS011;46574;52.818;6.516;2022-07-29T00:36:27;2.70;;;1.80;;
60722;SDS011;46574;52.818;6.516;2022-07-29T00:38:53;3.17;;;2.35;;
60722;SDS011;46574;52.818;6.516;2022-07-29T00:41:19;4.30;;;2.35;;
60722;SDS011;46574;52.818;6.516;2022-07-29T00:43:45;2.95;;;2.05;;
60722;SDS011;46574;52.818;6.516;2022-07-29T00:46:11;2.20;;;2.00;;
60722;SDS011;46574;52.818;6.516;2022-07-29T00:48:37;2.50;;;2.30;;
60722;SDS011;46574;52.818;6.516;2022-07-29T00:51:04;3.47;;;2.10;;
60722;SDS011;46574;52.818;6.516;2022-07-29T00:53:31;2.60;;;2.10;;
60722;SDS011;46574;52.818;6.516;2022-07-29T00:55:57;3.00;;;2.20;;
60722;SDS011;46574;52.818;6.516;2022-07-29T00:58:24;3.25;;;2.00;;
60722;SDS011;46574;52.818;6.516;2022-07-29T01:00:51;2.92;;;2.13;;
60722;SDS011;46574;52.818;6.516;2022-07-29T01:03:17;4.25;;;2.38;;
60722;SDS011;46574;52.818;6.516;2022-07-29T01:05:43;4.88;;;2.40;;
60722;SDS011;46574;52.818;6.516;2022-07-29T01:08:11;3.20;;;2.22;;
60722;SDS011;46574;52.818;6.516;2022-07-29T01:10:38;3.10;;;2.33;;
60722;SDS011;46574;52.818;6.516;2022-07-29T01:13:05;3.33;;;2.33;;
60722;SDS011;46574;52.818;6.516;2022-07-29T01:15:33;2.53;;;2.20;;
60722;SDS011;46574;52.818;6.516;2022-07-29T01:18:11;3.08;;;2.60;;
60722;SDS011;46574;52.818;6.516;2022-07-29T01:23:48;3.47;;;2.38;;
60722;SDS011;46574;52.818;6.516;2022-07-29T01:31:50;2.95;;;2.10;;
60722;SDS011;46574;52.818;6.516;2022-07-29T01:34:31;2.47;;;2.00;;
60722;SDS011;46574;52.818;6.516;2022-07-29T01:37:06;2.50;;;2.03;;
60722;SDS011;46574;52.818;6.516;2022-07-29T01:39:49;2.58;;;1.90;;
60722;SDS011;46574;52.818;6.516;2022-07-29T01:47:46;3.00;;;1.95;;
60722;SDS011;46574;52.818;6.516;2022-07-29T01:50:31;3.38;;;2.05;;
60722;SDS011;46574;52.818;6.516;2022-07-29T01:53:04;3.28;;;1.83;;
60722;SDS011;46574;52.818;6.516;2022-07-29T01:55:34;2.58;;;1.90;;
60722;SDS011;46574;52.818;6.516;2022-07-29T01:58:03;1.98;;;1.88;;
60722;SDS011;46574;52.818;6.516;2022-07-29T02:00:30;2.70;;;1.80;;
60722;SDS011;46574;52.818;6.516;2022-07-29T02:02:58;3.35;;;1.77;;
60722;SDS011;46574;52.818;6.516;2022-07-29T02:05:27;2.60;;;1.80;;
60722;SDS011;46574;52.818;6.516;2022-07-29T02:07:54;2.15;;;1.67;;
60722;SDS011;46574;52.818;6.516;2022-07-29T02:10:23;2.50;;;2.00;;
60722;SDS011;46574;52.818;6.516;2022-07-29T02:12:54;2.30;;;1.77;;
60722;SDS011;46574;52.818;6.516;2022-07-29T02:15:25;1.85;;;1.67;;
60722;SDS011;46574;52.818;6.516;2022-07-29T02:17:56;2.42;;;1.90;;
60722;SDS011;46574;52.818;6.516;2022-07-29T02:20:33;2.35;;;1.73;;
60722;SDS011;46574;52.818;6.516;2022-07-29T02:22:59;2.33;;;1.83;;
60722;SDS011;46574;52.818;6.516;2022-07-29T02:25:27;3.10;;;2.00;;
60722;SDS011;46574;52.818;6.516;2022-07-29T02:27:54;2.25;;;2.05;;
60722;SDS011;46574;52.818;6.516;2022-07-29T02:30:21;2.97;;;1.80;;
60722;SDS011;46574;52.818;6.516;2022-07-29T02:32:48;5.45;;;2.13;;
60722;SDS011;46574;52.818;6.516;2022-07-29T02:35:16;2.25;;;1.98;;
60722;SDS011;46574;52.818;6.516;2022-07-29T02:37:43;2.00;;;1.80;;
60722;SDS011;46574;52.818;6.516;2022-07-29T02:40:30;5.00;;;1.92;;
60722;SDS011;46574;52.818;6.516;2022-07-29T02:42:57;2.53;;;1.70;;
60722;SDS011;46574;52.818;6.516;2022-07-29T02:45:24;1.90;;;1.67;;
60722;SDS011;46574;52.818;6.516;2022-07-29T02:47:50;2.60;;;1.88;;
60722;SDS011;46574;52.818;6.516;2022-07-29T02:52:58;2.25;;;1.80;;
60722;SDS011;46574;52.818;6.516;2022-07-29T02:55:40;3.10;;;2.05;;
60722;SDS011;46574;52.818;6.516;2022-07-29T03:00:55;3.67;;;2.30;;
60722;SDS011;46574;52.818;6.516;2022-07-29T03:03:23;3.22;;;2.17;;
60722;SDS011;46574;52.818;6.516;2022-07-29T03:05:54;3.88;;;1.88;;
60722;SDS011;46574;52.818;6.516;2022-07-29T03:08:21;2.70;;;1.92;;
60722;SDS011;46574;52.818;6.516;2022-07-29T03:10:47;2.80;;;1.80;;
60722;SDS011;46574;52.818;6.516;2022-07-29T03:13:14;3.92;;;1.98;;
60722;SDS011;46574;52.818;6.516;2022-07-29T03:15:42;2.58;;;1.83;;
60722;SDS011;46574;52.818;6.516;2022-07-29T03:18:09;3.92;;;2.85;;
60722;SDS011;46574;52.818;6.516;2022-07-29T03:20:35;3.45;;;1.95;;
60722;SDS011;46574;52.818;6.516;2022-07-29T03:23:02;3.15;;;2.05;;
60722;SDS011;46574;52.818;6.516;2022-07-29T03:25:27;2.63;;;1.90;;
60722;SDS011;46574;52.818;6.516;2022-07-29T03:27:53;3.45;;;1.92;;
60722;SDS011;46574;52.818;6.516;2022-07-29T03:30:18;3.53;;;2.08;;
60722;SDS011;46574;52.818;6.516;2022-07-29T03:32:44;3.92;;;1.95;;
60722;SDS011;46574;52.818;6.516;2022-07-29T03:35:10;1.73;;;1.52;;
60722;SDS011;46574;52.818;6.516;2022-07-29T03:37:35;2.15;;;1.80;;
60722;SDS011;46574;52.818;6.516;2022-07-29T03:40:02;3.05;;;2.70;;
60722;SDS011;46574;52.818;6.516;2022-07-29T03:42:31;2.15;;;1.95;;
60722;SDS011;46574;52.818;6.516;2022-07-29T03:44:58;3.47;;;1.83;;
60722;SDS011;46574;52.818;6.516;2022-07-29T03:47:31;3.33;;;1.73;;
60722;SDS011;46574;52.818;6.516;2022-07-29T03:50:00;3.33;;;2.10;;
60722;SDS011;46574;52.818;6.516;2022-07-29T03:52:30;2.72;;;1.70;;
60722;SDS011;46574;52.818;6.516;2022-07-29T03:54:56;3.58;;;2.15;;
60722;SDS011;46574;52.818;6.516;2022-07-29T03:57:23;2.53;;;1.95;;
60722;SDS011;46574;52.818;6.516;2022-07-29T03:59:52;3.33;;;2.20;;
60722;SDS011;46574;52.818;6.516;2022-07-29T04:02:19;4.13;;;2.30;;
60722;SDS011;46574;52.818;6.516;2022-07-29T04:04:45;3.13;;;2.10;;
60722;SDS011;46574;52.818;6.516;2022-07-29T04:07:12;3.72;;;2.00;;
60722;SDS011;46574;52.818;6.516;2022-07-29T04:09:38;4.07;;;2.17;;
60722;SDS011;46574;52.818;6.516;2022-07-29T04:12:04;3.60;;;2.40;;
60722;SDS011;46574;52.818;6.516;2022-07-29T04:14:31;4.13;;;2.20;;
60722;SDS011;46574;52.818;6.516;2022-07-29T04:16:57;3.33;;;2.20;;
60722;SDS011;46574;52.818;6.516;2022-07-29T04:19:23;3.50;;;1.92;;
60722;SDS011;46574;52.818;6.516;2022-07-29T04:21:49;6.03;;;2.15;;
60722;SDS011;46574;52.818;6.516;2022-07-29T04:24:15;5.18;;;2.15;;
60722;SDS011;46574;52.818;6.516;2022-07-29T04:26:40;2.47;;;2.00;;
60722;SDS011;46574;52.818;6.516;2022-07-29T04:29:07;2.75;;;2.00;;
60722;SDS011;46574;52.818;6.516;2022-07-29T04:31:32;3.45;;;2.03;;
60722;SDS011;46574;52.818;6.516;2022-07-29T04:33:58;5.35;;;2.13;;
60722;SDS011;46574;52.818;6.516;2022-07-29T04:36:23;4.40;;;2.30;;
60722;SDS011;46574;52.818;6.516;2022-07-29T04:38:49;4.25;;;2.35;;
60722;SDS011;46574;52.818;6.516;2022-07-29T04:41:15;7.32;;;2.10;;
60722;SDS011;46574;52.818;6.516;2022-07-29T04:43:40;3.42;;;1.85;;
60722;SDS011;46574;52.818;6.516;2022-07-29T04:46:06;3.30;;;2.28;;
60722;SDS011;46574;52.818;6.516;2022-07-29T04:48:32;2.75;;;2.00;;
60722;SDS011;46574;52.818;6.516;2022-07-29T04:50:58;2.75;;;1.98;;
60722;SDS011;46574;52.818;6.516;2022-07-29T04:53:24;2.45;;;2.20;;
60722;SDS011;46574;52.818;6.516;2022-07-29T04:55:50;4.80;;;2.20;;
60722;SDS011;46574;52.818;6.516;2022-07-29T04:58:16;5.03;;;2.40;;
60722;SDS011;46574;52.818;6.516;2022-07-29T05:00:41;2.85;;;2.10;;
60722;SDS011;46574;52.818;6.516;2022-07-29T05:03:07;2.53;;;1.90;;
60722;SDS011;46574;52.818;6.516;2022-07-29T05:05:33;2.50;;;2.30;;
60722;SDS011;46574;52.818;6.516;2022-07-29T05:07:58;3.67;;;2.20;;
60722;SDS011;46574;52.818;6.516;2022-07-29T05:10:24;3.10;;;2.33;;
60722;SDS011;46574;52.818;6.516;2022-07-29T05:12:50;3.13;;;1.92;;
60722;SDS011;46574;52.818;6.516;2022-07-29T05:15:16;3.13;;;2.40;;
60722;SDS011;46574;52.818;6.516;2022-07-29T05:17:42;3.15;;;2.38;;
60722;SDS011;46574;52.818;6.516;2022-07-29T05:20:08;3.83;;;1.98;;
60722;SDS011;46574;52.818;6.516;2022-07-29T05:22:34;5.40;;;2.38;;
60722;SDS011;46574;52.818;6.516;2022-07-29T05:25:00;4.68;;;2.25;;
60722;SDS011;46574;52.818;6.516;2022-07-29T05:27:26;4.05;;;2.10;;
60722;SDS011;46574;52.818;6.516;2022-07-29T05:29:51;2.88;;;1.98;;
60722;SDS011;46574;52.818;6.516;2022-07-29T05:32:17;5.60;;;2.50;;
60722;SDS011;46574;52.818;6.516;2022-07-29T05:34:42;4.82;;;2.47;;
60722;SDS011;46574;52.818;6.516;2022-07-29T05:37:08;4.60;;;2.15;;
60722;SDS011;46574;52.818;6.516;2022-07-29T05:39:34;5.05;;;2.17;;
60722;SDS011;46574;52.818;6.516;2022-07-29T05:41:59;9.95;;;3.22;;
60722;SDS011;46574;52.818;6.516;2022-07-29T05:44:25;6.68;;;2.67;;
60722;SDS011;46574;52.818;6.516;2022-07-29T05:46:51;2.53;;;2.30;;
60722;SDS011;46574;52.818;6.516;2022-07-29T05:49:16;3.95;;;2.28;;
60722;SDS011;46574;52.818;6.516;2022-07-29T05:51:42;2.97;;;2.15;;
60722;SDS011;46574;52.818;6.516;2022-07-29T05:54:08;5.20;;;2.55;;
60722;SDS011;46574;52.818;6.516;2022-07-29T05:56:35;2.55;;;2.08;;
60722;SDS011;46574;52.818;6.516;2022-07-29T05:59:01;2.58;;;2.38;;
60722;SDS011;46574;52.818;6.516;2022-07-29T06:01:28;3.55;;;2.45;;
60722;SDS011;46574;52.818;6.516;2022-07-29T06:03:54;2.95;;;2.13;;
60722;SDS011;46574;52.818;6.516;2022-07-29T06:06:19;4.22;;;2.22;;
60722;SDS011;46574;52.818;6.516;2022-07-29T06:08:45;3.78;;;2.20;;
60722;SDS011;46574;52.818;6.516;2022-07-29T06:11:10;2.85;;;2.40;;
60722;SDS011;46574;52.818;6.516;2022-07-29T06:13:36;2.58;;;2.25;;
60722;SDS011;46574;52.818;6.516;2022-07-29T06:16:02;4.35;;;2.40;;
60722;SDS011;46574;52.818;6.516;2022-07-29T06:18:29;3.88;;;2.10;;
60722;SDS011;46574;52.818;6.516;2022-07-29T06:20:54;2.85;;;2.28;;
60722;SDS011;46574;52.818;6.516;2022-07-29T06:23:20;4.22;;;2.30;;
60722;SDS011;46574;52.818;6.516;2022-07-29T06:25:46;2.83;;;2.30;;
60722;SDS011;46574;52.818;6.516;2022-07-29T06:28:12;5.40;;;2.15;;
60722;SDS011;46574;52.818;6.516;2022-07-29T06:30:38;4.97;;;2.10;;
60722;SDS011;46574;52.818;6.516;2022-07-29T06:33:04;3.88;;;2.35;;
60722;SDS011;46574;52.818;6.516;2022-07-29T06:35:30;4.15;;;2.50;;
60722;SDS011;46574;52.818;6.516;2022-07-29T06:37:57;2.67;;;1.92;;
60722;SDS011;46574;52.818;6.516;2022-07-29T06:40:23;2.47;;;1.88;;
60722;SDS011;46574;52.818;6.516;2022-07-29T06:43:07;3.35;;;2.30;;
60722;SDS011;46574;52.818;6.516;2022-07-29T06:45:33;3.28;;;2.10;;
60722;SDS011;46574;52.818;6.516;2022-07-29T06:47:59;4.35;;;2.30;;
60722;SDS011;46574;52.818;6.516;2022-07-29T06:50:25;3.28;;;2.25;;
60722;SDS011;46574;52.818;6.516;2022-07-29T06:52:51;4.35;;;3.17;;
60722;SDS011;46574;52.818;6.516;2022-07-29T06:55:17;2.85;;;2.38;;
60722;SDS011;46574;52.818;6.516;2022-07-29T06:57:44;2.85;;;2.20;;
60722;SDS011;46574;52.818;6.516;2022-07-29T07:00:11;4.07;;;2.17;;
60722;SDS011;46574;52.818;6.516;2022-07-29T07:02:38;2.92;;;2.45;;
60722;SDS011;46574;52.818;6.516;2022-07-29T07:05:03;4.72;;;2.33;;
60722;SDS011;46574;52.818;6.516;2022-07-29T07:07:30;2.95;;;2.20;;
60722;SDS011;46574;52.818;6.516;2022-07-29T07:09:56;3.35;;;2.90;;
60722;SDS011;46574;52.818;6.516;2022-07-29T07:12:21;2.03;;;1.58;;
60722;SDS011;46574;52.818;6.516;2022-07-29T07:14:47;2.65;;;2.25;;
60722;SDS011;46574;52.818;6.516;2022-07-29T07:17:13;3.67;;;2.28;;
60722;SDS011;46574;52.818;6.516;2022-07-29T07:19:38;4.60;;;2.58;;
60722;SDS011;46574;52.818;6.516;2022-07-29T07:22:04;4.25;;;2.40;;
60722;SDS011;46574;52.818;6.516;2022-07-29T07:24:30;5.10;;;2.50;;
60722;SDS011;46574;52.818;6.516;2022-07-29T07:26:55;3.00;;;2.10;;
60722;SDS011;46574;52.818;6.516;2022-07-29T07:29:21;3.67;;;2.00;;
60722;SDS011;46574;52.818;6.516;2022-07-29T07:31:47;3.30;;;2.03;;
60722;SDS011;46574;52.818;6.516;2022-07-29T07:34:12;4.60;;;2.42;;
60722;SDS011;46574;52.818;6.516;2022-07-29T07:36:38;2.92;;;2.17;;
60722;SDS011;46574;52.818;6.516;2022-07-29T07:39:03;4.13;;;2.60;;
60722;SDS011;46574;52.818;6.516;2022-07-29T07:41:30;3.08;;;2.40;;
60722;SDS011;46574;52.818;6.516;2022-07-29T07:43:56;5.75;;;2.97;;
60722;SDS011;46574;52.818;6.516;2022-07-29T07:46:21;3.67;;;2.40;;
60722;SDS011;46574;52.818;6.516;2022-07-29T07:48:47;3.55;;;2.20;;
60722;SDS011;46574;52.818;6.516;2022-07-29T07:51:12;2.28;;;2.00;;
60722;SDS011;46574;52.818;6.516;2022-07-29T07:53:38;4.57;;;2.47;;
60722;SDS011;46574;52.818;6.516;2022-07-29T07:56:04;5.93;;;2.60;;
60722;SDS011;46574;52.818;6.516;2022-07-29T07:58:31;3.00;;;2.63;;
60722;SDS011;46574;52.818;6.516;2022-07-29T08:00:57;4.30;;;2.40;;
60722;SDS011;46574;52.818;6.516;2022-07-29T08:03:23;5.07;;;2.30;;
60722;SDS011;46574;52.818;6.516;2022-07-29T08:05:48;3.42;;;2.53;;
60722;SDS011;46574;52.818;6.516;2022-07-29T08:08:16;2.60;;;2.37;;
60722;SDS011;46574;52.818;6.516;2022-07-29T08:10:42;5.22;;;2.80;;
60722;SDS011;46574;52.818;6.516;2022-07-29T08:13:17;2.50;;;2.17;;
60722;SDS011;46574;52.818;6.516;2022-07-29T08:15:44;3.00;;;2.30;;
60722;SDS011;46574;52.818;6.516;2022-07-29T08:18:11;4.22;;;2.47;;
60722;SDS011;46574;52.818;6.516;2022-07-29T08:20:39;4.95;;;2.58;;
60722;SDS011;46574;52.818;6.516;2022-07-29T08:23:06;4.20;;;2.35;;
60722;SDS011;46574;52.818;6.516;2022-07-29T08:25:34;5.35;;;2.50;;
60722;SDS011;46574;52.818;6.516;2022-07-29T08:28:01;2.60;;;2.28;;
60722;SDS011;46574;52.818;6.516;2022-07-29T08:30:27;4.60;;;2.60;;
60722;SDS011;46574;52.818;6.516;2022-07-29T08:32:52;3.15;;;2.85;;
60722;SDS011;46574;52.818;6.516;2022-07-29T08:35:19;4.53;;;2.90;;
60722;SDS011;46574;52.818;6.516;2022-07-29T08:37:48;4.70;;;2.45;;
60722;SDS011;46574;52.818;6.516;2022-07-29T08:40:14;3.20;;;2.33;;
60722;SDS011;46574;52.818;6.516;2022-07-29T08:42:40;4.45;;;2.50;;
60722;SDS011;46574;52.818;6.516;2022-07-29T08:45:06;4.78;;;2.50;;
60722;SDS011;46574;52.818;6.516;2022-07-29T08:47:32;3.22;;;2.40;;
60722;SDS011;46574;52.818;6.516;2022-07-29T08:49:58;4.22;;;3.20;;
60722;SDS011;46574;52.818;6.516;2022-07-29T08:52:25;5.68;;;2.70;;
60722;SDS011;46574;52.818;6.516;2022-07-29T08:54:52;3.60;;;2.22;;
60722;SDS011;46574;52.818;6.516;2022-07-29T08:57:18;4.25;;;2.53;;
60722;SDS011;46574;52.818;6.516;2022-07-29T08:59:45;2.88;;;2.42;;
60722;SDS011;46574;52.818;6.516;2022-07-29T09:02:15;3.28;;;2.60;;
60722;SDS011;46574;52.818;6.516;2022-07-29T09:04:45;3.13;;;2.70;;
60722;SDS011;46574;52.818;6.516;2022-07-29T09:07:12;5.53;;;2.80;;
60722;SDS011;46574;52.818;6.516;2022-07-29T09:09:41;5.47;;;2.45;;
60722;SDS011;46574;52.818;6.516;2022-07-29T09:12:08;5.97;;;2.80;;
60722;SDS011;46574;52.818;6.516;2022-07-29T09:14:36;3.85;;;2.88;;
60722;SDS011;46574;52.818;6.516;2022-07-29T09:17:02;4.38;;;3.10;;
60722;SDS011;46574;52.818;6.516;2022-07-29T09:19:29;4.55;;;2.80;;
60722;SDS011;46574;52.818;6.516;2022-07-29T09:24:25;2.85;;;2.65;;
60722;SDS011;46574;52.818;6.516;2022-07-29T09:27:00;5.07;;;2.60;;
60722;SDS011;46574;52.818;6.516;2022-07-29T09:29:26;3.38;;;2.60;;
60722;SDS011;46574;52.818;6.516;2022-07-29T09:31:53;5.13;;;2.97;;
60722;SDS011;46574;52.818;6.516;2022-07-29T09:34:23;2.88;;;2.25;;
60722;SDS011;46574;52.818;6.516;2022-07-29T09:36:51;3.70;;;2.88;;
60722;SDS011;46574;52.818;6.516;2022-07-29T09:39:28;3.15;;;2.47;;
60722;SDS011;46574;52.818;6.516;2022-07-29T09:41:58;3.08;;;2.88;;
60722;SDS011;46574;52.818;6.516;2022-07-29T09:44:25;3.33;;;3.00;;
60722;SDS011;46574;52.818;6.516;2022-07-29T09:46:58;2.90;;;2.70;;
60722;SDS011;46574;52.818;6.516;2022-07-29T09:49:33;5.57;;;3.03;;
60722;SDS011;46574;52.818;6.516;2022-07-29T09:52:03;3.67;;;2.47;;
60722;SDS011;46574;52.818;6.516;2022-07-29T09:54:31;2.78;;;2.50;;
60722;SDS011;46574;52.818;6.516;2022-07-29T09:57:07;4.68;;;2.75;;
60722;SDS011;46574;52.818;6.516;2022-07-29T09:59:37;3.40;;;2.65;;
60722;SDS011;46574;52.818;6.516;2022-07-29T10:02:13;3.47;;;2.50;;
60722;SDS011;46574;52.818;6.516;2022-07-29T10:04:42;5.05;;;2.55;;
60722;SDS011;46574;52.818;6.516;2022-07-29T10:09:34;4.32;;;2.88;;
60722;SDS011;46574;52.818;6.516;2022-07-29T10:12:11;4.53;;;2.42;;
60722;SDS011;46574;52.818;6.516;2022-07-29T10:14:40;2.53;;;2.30;;
60722;SDS011;46574;52.818;6.516;2022-07-29T10:17:07;4.63;;;2.50;;
60722;SDS011;46574;52.818;6.516;2022-07-29T10:19:35;3.72;;;2.45;;
60722;SDS011;46574;52.818;6.516;2022-07-29T10:22:04;3.28;;;2.65;;
60722;SDS011;46574;52.818;6.516;2022-07-29T10:24:31;3.63;;;2.40;;
60722;SDS011;46574;52.818;6.516;2022-07-29T10:26:59;4.28;;;2.45;;
60722;SDS011;46574;52.818;6.516;2022-07-29T10:29:26;4.00;;;2.63;;
60722;SDS011;46574;52.818;6.516;2022-07-29T10:32:10;3.33;;;2.60;;
60722;SDS011;46574;52.818;6.516;2022-07-29T10:34:49;3.13;;;2.13;;
60722;SDS011;46574;52.818;6.516;2022-07-29T10:40:28;5.43;;;3.03;;
60722;SDS011;46574;52.818;6.516;2022-07-29T10:43:34;4.03;;;2.67;;
60722;SDS011;46574;52.818;6.516;2022-07-29T10:46:03;4.05;;;2.60;;
60722;SDS011;46574;52.818;6.516;2022-07-29T10:48:29;4.90;;;2.58;;
60722;SDS011;46574;52.818;6.516;2022-07-29T10:50:59;3.83;;;2.55;;
60722;SDS011;46574;52.818;6.516;2022-07-29T10:56:27;4.88;;;2.50;;
60722;SDS011;46574;52.818;6.516;2022-07-29T11:01:48;3.22;;;2.58;;
60722;SDS011;46574;52.818;6.516;2022-07-29T11:04:16;4.57;;;2.83;;
60722;SDS011;46574;52.818;6.516;2022-07-29T11:09:30;7.57;;;2.88;;
60722;SDS011;46574;52.818;6.516;2022-07-29T11:11:56;3.17;;;2.28;;
60722;SDS011;46574;52.818;6.516;2022-07-29T11:17:20;7.65;;;2.67;;
60722;SDS011;46574;52.818;6.516;2022-07-29T11:19:46;3.75;;;3.10;;
60722;SDS011;46574;52.818;6.516;2022-07-29T11:22:12;5.38;;;2.60;;
60722;SDS011;46574;52.818;6.516;2022-07-29T11:25:15;4.03;;;2.50;;
60722;SDS011;46574;52.818;6.516;2022-07-29T11:27:43;4.05;;;2.60;;
60722;SDS011;46574;52.818;6.516;2022-07-29T11:30:09;6.45;;;2.80;;
60722;SDS011;46574;52.818;6.516;2022-07-29T11:32:46;4.22;;;3.00;;
60722;SDS011;46574;52.818;6.516;2022-07-29T11:37:42;5.80;;;2.88;;
60722;SDS011;46574;52.818;6.516;2022-07-29T11:40:09;4.43;;;2.80;;
60722;SDS011;46574;52.818;6.516;2022-07-29T11:42:40;3.97;;;2.67;;
60722;SDS011;46574;52.818;6.516;2022-07-29T11:47:52;3.97;;;2.80;;
60722;SDS011;46574;52.818;6.516;2022-07-29T11:50:30;4.00;;;3.10;;
60722;SDS011;46574;52.818;6.516;2022-07-29T11:52:57;4.13;;;2.40;;
60722;SDS011;46574;52.818;6.516;2022-07-29T11:55:24;4.38;;;2.45;;
60722;SDS011;46574;52.818;6.516;2022-07-29T11:57:51;5.88;;;2.80;;
60722;SDS011;46574;52.818;6.516;2022-07-29T12:00:40;7.35;;;3.00;;
60722;SDS011;46574;52.818;6.516;2022-07-29T12:03:08;4.68;;;2.63;;
60722;SDS011;46574;52.818;6.516;2022-07-29T12:08:11;5.95;;;3.25;;
60722;SDS011;46574;52.818;6.516;2022-07-29T12:10:44;5.68;;;3.28;;
60722;SDS011;46574;52.818;6.516;2022-07-29T12:13:11;4.55;;;3.25;;
60722;SDS011;46574;52.818;6.516;2022-07-29T12:15:38;5.38;;;3.50;;
60722;SDS011;46574;52.818;6.516;2022-07-29T12:18:14;7.00;;;3.15;;
60722;SDS011;46574;52.818;6.516;2022-07-29T12:20:42;6.15;;;3.17;;
60722;SDS011;46574;52.818;6.516;2022-07-29T12:23:08;6.20;;;3.45;;
60722;SDS011;46574;52.818;6.516;2022-07-29T12:28:12;4.95;;;2.83;;
60722;SDS011;46574;52.818;6.516;2022-07-29T12:30:50;6.05;;;2.97;;
60722;SDS011;46574;52.818;6.516;2022-07-29T12:35:48;4.32;;;3.10;;
60722;SDS011;46574;52.818;6.516;2022-07-29T12:38:15;5.00;;;3.13;;
60722;SDS011;46574;52.818;6.516;2022-07-29T12:40:42;4.55;;;2.60;;
60722;SDS011;46574;52.818;6.516;2022-07-29T12:45:37;4.63;;;3.10;;
60722;SDS011;46574;52.818;6.516;2022-07-29T12:48:04;4.32;;;2.90;;
60722;SDS011;46574;52.818;6.516;2022-07-29T12:50:33;3.97;;;2.63;;
60722;SDS011;46574;52.818;6.516;2022-07-29T12:53:13;4.85;;;2.60;;
60722;SDS011;46574;52.818;6.516;2022-07-29T12:55:46;3.20;;;2.80;;
60722;SDS011;46574;52.818;6.516;2022-07-29T13:01:12;5.35;;;3.58;;
60722;SDS011;46574;52.818;6.516;2022-07-29T13:03:48;3.53;;;2.70;;
60722;SDS011;46574;52.818;6.516;2022-07-29T13:09:11;3.90;;;2.55;;
60722;SDS011;46574;52.818;6.516;2022-07-29T13:11:45;6.50;;;3.50;;
60722;SDS011;46574;52.818;6.516;2022-07-29T13:14:14;4.00;;;2.67;;
60722;SDS011;46574;52.818;6.516;2022-07-29T13:17:15;5.05;;;3.08;;
60722;SDS011;46574;52.818;6.516;2022-07-29T13:19:52;5.00;;;3.47;;
60722;SDS011;46574;52.818;6.516;2022-07-29T13:22:29;3.95;;;3.50;;
60722;SDS011;46574;52.818;6.516;2022-07-29T13:24:55;3.90;;;3.00;;
60722;SDS011;46574;52.818;6.516;2022-07-29T13:27:30;5.20;;;3.67;;
60722;SDS011;46574;52.818;6.516;2022-07-29T13:29:58;5.00;;;3.40;;
60722;SDS011;46574;52.818;6.516;2022-07-29T13:32:25;3.58;;;3.20;;
60722;SDS011;46574;52.818;6.516;2022-07-29T13:34:52;5.05;;;3.08;;
60722;SDS011;46574;52.818;6.516;2022-07-29T13:37:18;4.88;;;2.75;;
60722;SDS011;46574;52.818;6.516;2022-07-29T13:39:44;5.00;;;2.40;;
60722;SDS011;46574;52.818;6.516;2022-07-29T13:42:10;3.00;;;2.33;;
60722;SDS011;46574;52.818;6.516;2022-07-29T13:44:38;4.18;;;2.00;;
60722;SDS011;46574;52.818;6.516;2022-07-29T13:47:05;2.22;;;1.90;;
60722;SDS011;46574;52.818;6.516;2022-07-29T13:49:31;3.20;;;2.15;;
60722;SDS011;46574;52.818;6.516;2022-07-29T13:51:56;5.95;;;2.85;;
60722;SDS011;46574;52.818;6.516;2022-07-29T13:54:22;2.45;;;2.10;;
60722;SDS011;46574;52.818;6.516;2022-07-29T13:56:49;3.97;;;2.30;;
60722;SDS011;46574;52.818;6.516;2022-07-29T13:59:15;5.60;;;2.30;;
60722;SDS011;46574;52.818;6.516;2022-07-29T14:01:41;3.42;;;2.30;;
60722;SDS011;46574;52.818;6.516;2022-07-29T14:04:07;3.97;;;2.40;;
60722;SDS011;46574;52.818;6.516;2022-07-29T14:06:33;6.18;;;2.20;;
60722;SDS011;46574;52.818;6.516;2022-07-29T14:08:59;4.07;;;2.30;;
60722;SDS011;46574;52.818;6.516;2022-07-29T14:11:25;3.17;;;2.40;;
60722;SDS011;46574;52.818;6.516;2022-07-29T14:13:50;3.75;;;1.92;;
60722;SDS011;46574;52.818;6.516;2022-07-29T14:16:16;4.60;;;2.65;;
60722;SDS011;46574;52.818;6.516;2022-07-29T14:18:42;2.65;;;2.20;;
60722;SDS011;46574;52.818;6.516;2022-07-29T14:21:08;5.53;;;2.30;;
60722;SDS011;46574;52.818;6.516;2022-07-29T14:23:33;7.53;;;2.50;;
60722;SDS011;46574;52.818;6.516;2022-07-29T14:25:59;2.35;;;1.80;;
60722;SDS011;46574;52.818;6.516;2022-07-29T14:28:25;3.47;;;2.20;;
60722;SDS011;46574;52.818;6.516;2022-07-29T14:30:50;6.30;;;2.40;;
60722;SDS011;46574;52.818;6.516;2022-07-29T14:33:16;4.00;;;2.45;;
60722;SDS011;46574;52.818;6.516;2022-07-29T14:35:42;3.50;;;2.20;;
60722;SDS011;46574;52.818;6.516;2022-07-29T14:38:08;5.00;;;2.42;;
60722;SDS011;46574;52.818;6.516;2022-07-29T14:40:34;4.32;;;2.40;;
60722;SDS011;46574;52.818;6.516;2022-07-29T14:42:59;3.42;;;2.60;;
60722;SDS011;46574;52.818;6.516;2022-07-29T14:45:30;8.85;;;2.70;;
60722;SDS011;46574;52.818;6.516;2022-07-29T14:47:56;4.22;;;2.33;;
60722;SDS011;46574;52.818;6.516;2022-07-29T14:50:22;6.07;;;2.50;;
60722;SDS011;46574;52.818;6.516;2022-07-29T14:52:48;4.88;;;2.65;;
60722;SDS011;46574;52.818;6.516;2022-07-29T14:55:13;6.30;;;2.63;;
60722;SDS011;46574;52.818;6.516;2022-07-29T14:57:39;4.88;;;2.20;;
60722;SDS011;46574;52.818;6.516;2022-07-29T15:00:05;2.38;;;1.75;;
60722;SDS011;46574;52.818;6.516;2022-07-29T15:02:32;5.20;;;2.13;;
60722;SDS011;46574;52.818;6.516;2022-07-29T15:04:58;4.65;;;2.20;;
60722;SDS011;46574;52.818;6.516;2022-07-29T15:07:24;3.22;;;2.20;;
60722;SDS011;46574;52.818;6.516;2022-07-29T15:09:49;4.00;;;2.10;;
60722;SDS011;46574;52.818;6.516;2022-07-29T15:12:15;2.80;;;2.45;;
60722;SDS011;46574;52.818;6.516;2022-07-29T15:14:41;7.18;;;3.35;;
60722;SDS011;46574;52.818;6.516;2022-07-29T15:17:07;3.47;;;2.10;;
60722;SDS011;46574;52.818;6.516;2022-07-29T15:19:32;3.22;;;2.10;;
60722;SDS011;46574;52.818;6.516;2022-07-29T15:21:59;4.40;;;2.53;;
60722;SDS011;46574;52.818;6.516;2022-07-29T15:24:24;2.40;;;2.20;;
60722;SDS011;46574;52.818;6.516;2022-07-29T15:26:50;3.70;;;1.92;;
60722;SDS011;46574;52.818;6.516;2022-07-29T15:29:16;3.63;;;2.05;;
60722;SDS011;46574;52.818;6.516;2022-07-29T15:31:42;3.72;;;2.08;;
60722;SDS011;46574;52.818;6.516;2022-07-29T15:34:08;3.13;;;2.05;;
60722;SDS011;46574;52.818;6.516;2022-07-29T15:36:33;3.70;;;2.40;;
60722;SDS011;46574;52.818;6.516;2022-07-29T15:39:00;3.15;;;2.05;;
60722;SDS011;46574;52.818;6.516;2022-07-29T15:41:26;3.03;;;1.90;;
60722;SDS011;46574;52.818;6.516;2022-07-29T15:43:52;3.28;;;2.00;;
60722;SDS011;46574;52.818;6.516;2022-07-29T15:46:18;3.00;;;2.03;;
60722;SDS011;46574;52.818;6.516;2022-07-29T15:49:03;2.63;;;1.80;;
60722;SDS011;46574;52.818;6.516;2022-07-29T15:51:30;2.25;;;2.10;;